createdAt,value
2022-09-30T00:02:14.867Z,9.79
2022-09-30T00:07:18.659Z,9.80
2022-09-30T00:12:29.603Z,9.80
2022-09-30T00:17:32.290Z,9.79
2022-09-30T00:22:33.983Z,9.77
2022-09-30T00:27:41.638Z,9.76
2022-09-30T00:32:49.270Z,9.77
2022-09-30T00:37:55.211Z,9.77
2022-09-30T00:42:59.206Z,9.77
2022-09-30T00:48:08.246Z,9.76
2022-09-30T00:53:50.644Z,9.76
2022-09-30T00:59:00.259Z,9.75
2022-09-30T01:04:13.991Z,9.75
2022-09-30T01:09:24.131Z,9.72
2022-09-30T01:14:30.575Z,9.71
2022-09-30T01:20:17.091Z,9.69
2022-09-30T01:25:24.297Z,9.67
2022-09-30T01:31:05.751Z,9.67
2022-09-30T01:36:24.326Z,9.65
2022-09-30T01:41:55.456Z,9.62
2022-09-30T01:47:25.543Z,9.61
2022-09-30T01:52:34.074Z,9.61
2022-09-30T01:57:57.157Z,9.57
2022-09-30T02:03:04.631Z,9.52
2022-09-30T02:08:42.372Z,9.45
2022-09-30T02:14:15.917Z,9.40
2022-09-30T02:19:26.551Z,9.33
2022-09-30T02:24:37.023Z,9.28
2022-09-30T02:29:42.252Z,9.26
2022-09-30T02:34:54.338Z,9.24
2022-09-30T02:40:02.432Z,9.24
2022-09-30T02:45:10.764Z,9.23
2022-09-30T02:50:56.793Z,9.21
2022-09-30T02:56:04.468Z,9.19
2022-09-30T03:01:11.447Z,9.19
2022-09-30T03:06:15.442Z,9.16
2022-09-30T03:11:23.731Z,9.14
2022-09-30T03:16:39.818Z,9.14
2022-09-30T03:22:19.283Z,9.11
2022-09-30T03:27:41.033Z,9.10
2022-09-30T03:33:10.127Z,9.08
2022-09-30T03:38:24.066Z,9.10
2022-09-30T03:43:39.241Z,9.12
2022-09-30T03:48:43.825Z,9.12
2022-09-30T03:53:56.853Z,9.11
2022-09-30T03:59:00.352Z,9.12
2022-09-30T04:04:02.151Z,9.10
2022-09-30T04:09:09.217Z,9.11
2022-09-30T04:14:24.408Z,9.11
2022-09-30T04:19:27.329Z,9.10
2022-09-30T04:24:29.517Z,9.07
2022-09-30T04:29:31.291Z,9.05
2022-09-30T04:34:35.454Z,9.03
2022-09-30T04:39:39.455Z,9.03
2022-09-30T04:44:41.279Z,9.01
2022-09-30T04:49:43.883Z,9.00
2022-09-30T04:54:45.581Z,9.00
2022-09-30T04:59:53.313Z,8.98
2022-09-30T05:04:57.401Z,8.96
2022-09-30T05:10:07.701Z,8.95
2022-09-30T05:15:12.312Z,8.91
2022-09-30T05:20:20.826Z,8.87
2022-09-30T05:25:26.856Z,8.81
2022-09-30T05:30:30.804Z,8.75
2022-09-30T05:35:34.966Z,8.66
2022-09-30T05:40:40.256Z,8.61
2022-09-30T05:45:42.061Z,8.56
2022-09-30T05:50:44.699Z,8.49
2022-09-30T05:55:51.422Z,8.49
2022-09-30T06:00:55.521Z,8.50
2022-09-30T06:06:00.610Z,8.54
2022-09-30T06:11:11.853Z,8.60
2022-09-30T06:16:18.048Z,8.68
2022-09-30T06:21:20.155Z,8.74
2022-09-30T06:26:24.206Z,8.81
2022-09-30T06:31:31.628Z,8.90
2022-09-30T06:36:37.938Z,9.03
2022-09-30T06:41:44.118Z,9.24
2022-09-30T06:46:54.817Z,9.43
2022-09-30T06:51:56.665Z,9.58
2022-09-30T06:57:00.603Z,9.68
2022-09-30T07:02:05.623Z,9.75
2022-09-30T07:07:12.815Z,9.84
2022-09-30T07:12:17.366Z,9.93
2022-09-30T07:17:22.120Z,10.06
2022-09-30T07:22:31.493Z,10.19
2022-09-30T07:27:41.923Z,10.31
2022-09-30T07:32:47.611Z,10.50
2022-09-30T07:37:53.307Z,10.67
2022-09-30T07:42:55.223Z,10.85
2022-09-30T07:48:01.446Z,11.01
2022-09-30T07:53:04.127Z,10.96
2022-09-30T07:58:07.868Z,11.02
2022-09-30T08:03:10.835Z,11.04
2022-09-30T08:08:17.714Z,11.01
2022-09-30T08:13:20.157Z,11.15
2022-09-30T08:18:22.617Z,11.34
2022-09-30T08:23:32.783Z,11.53
2022-09-30T08:28:42.639Z,11.68
2022-09-30T08:33:55.167Z,11.78
2022-09-30T08:38:57.588Z,11.91
2022-09-30T08:44:27.198Z,12.05
2022-09-30T08:49:47.602Z,12.21
2022-09-30T08:54:57.061Z,12.34
2022-09-30T09:00:05.382Z,12.47
2022-09-30T09:05:18.004Z,12.53
2022-09-30T09:10:24.057Z,12.65
2022-09-30T09:15:47.529Z,12.82
2022-09-30T09:21:00.708Z,12.93
2022-09-30T09:26:04.595Z,12.98
2022-09-30T09:31:17.137Z,13.18
2022-09-30T09:36:32.864Z,13.34
2022-09-30T09:41:52.679Z,13.43
2022-09-30T09:47:14.032Z,13.53
2022-09-30T09:53:01.326Z,13.64
2022-09-30T09:58:19.009Z,13.72
2022-09-30T10:03:23.555Z,13.92
2022-09-30T10:08:29.129Z,14.01
2022-09-30T10:14:03.255Z,14.12
2022-09-30T10:19:18.524Z,14.19
2022-09-30T10:24:27.065Z,14.25
2022-09-30T10:29:32.169Z,14.31
2022-09-30T10:34:41.822Z,14.21
2022-09-30T10:39:56.416Z,14.27
2022-09-30T10:45:02.271Z,14.51
2022-09-30T10:50:08.435Z,14.68
2022-09-30T10:55:20.513Z,14.52
2022-09-30T11:00:26.022Z,14.86
2022-09-30T11:05:34.604Z,15.09
2022-09-30T11:10:36.760Z,14.98
2022-09-30T11:16:07.551Z,14.70
2022-09-30T11:21:33.097Z,14.81
2022-09-30T11:27:06.360Z,14.79
2022-09-30T11:32:28.134Z,15.51
2022-09-30T11:37:32.280Z,16.09
2022-09-30T11:43:03.158Z,16.30
2022-09-30T11:48:14.087Z,16.34
2022-09-30T11:53:23.466Z,16.62
2022-09-30T11:58:46.296Z,17.12
2022-09-30T12:04:40.762Z,17.70
2022-09-30T12:09:50.574Z,18.52
2022-09-30T12:15:13.645Z,17.27
2022-09-30T12:20:34.461Z,18.24
2022-09-30T12:25:52.035Z,19.24
2022-09-30T12:31:08.341Z,19.73
2022-09-30T12:36:34.420Z,19.29
2022-09-30T12:41:58.999Z,21.31
2022-09-30T12:47:21.105Z,21.50
2022-09-30T12:52:32.116Z,20.83
2022-09-30T12:57:41.745Z,22.59
2022-09-30T13:02:51.154Z,20.22
2022-09-30T13:08:05.100Z,22.18
2022-09-30T13:13:31.778Z,21.64
2022-09-30T13:18:34.346Z,21.43
2022-09-30T13:23:42.962Z,22.99
2022-09-30T13:28:49.123Z,23.17
2022-09-30T13:34:02.611Z,19.93
2022-09-30T13:39:46.599Z,21.54
2022-09-30T13:45:16.431Z,19.58
2022-09-30T13:50:19.979Z,21.63
2022-09-30T13:55:29.044Z,22.50
2022-09-30T14:00:47.281Z,22.88
2022-09-30T14:06:00.170Z,23.20
2022-09-30T14:11:17.923Z,21.63
2022-09-30T14:16:36.085Z,21.03
2022-09-30T14:21:49.343Z,22.74
2022-09-30T14:26:57.545Z,23.33
2022-09-30T14:32:00.329Z,22.44
2022-09-30T14:37:04.881Z,21.52
2022-09-30T14:42:14.582Z,22.79
2022-09-30T14:47:22.859Z,22.30
2022-09-30T14:52:38.416Z,21.25
2022-09-30T14:57:45.973Z,20.42
2022-09-30T15:02:49.939Z,20.88
2022-09-30T15:07:51.791Z,20.51
2022-09-30T15:12:56.090Z,19.71
2022-09-30T15:17:57.860Z,18.90
2022-09-30T15:23:03.363Z,18.30
2022-09-30T15:28:07.038Z,17.75
2022-09-30T15:33:18.525Z,17.45
2022-09-30T15:38:25.397Z,17.26
2022-09-30T15:43:37.741Z,17.03
2022-09-30T15:48:44.952Z,16.98
2022-09-30T15:53:48.247Z,16.86
2022-09-30T15:58:57.006Z,16.83
2022-09-30T16:04:11.043Z,16.62
2022-09-30T16:09:36.488Z,16.32
2022-09-30T16:14:49.661Z,16.13
2022-09-30T16:19:55.008Z,16.05
2022-09-30T16:25:15.790Z,15.97
2022-09-30T16:30:22.488Z,15.81
2022-09-30T16:35:33.652Z,15.69
2022-09-30T16:40:35.832Z,15.61
2022-09-30T16:45:38.539Z,15.48
2022-09-30T16:50:43.329Z,15.36
2022-09-30T16:55:48.168Z,15.22
2022-09-30T17:00:49.943Z,15.05
2022-09-30T17:05:55.675Z,14.96
2022-09-30T17:11:01.419Z,14.89
2022-09-30T17:16:04.406Z,14.82
2022-09-30T17:21:06.175Z,15.07
2022-09-30T17:26:15.160Z,14.80
2022-09-30T17:31:22.149Z,14.68
2022-09-30T17:36:27.700Z,14.62
2022-09-30T17:41:53.547Z,14.51
2022-09-30T17:47:00.228Z,14.42
2022-09-30T17:52:06.722Z,14.33
2022-09-30T17:57:11.493Z,14.30
2022-09-30T18:02:17.655Z,14.24
2022-09-30T18:07:23.797Z,14.15
2022-09-30T18:12:34.994Z,14.10
2022-09-30T18:17:42.186Z,14.00
2022-09-30T18:22:44.809Z,13.96
2022-09-30T18:27:57.298Z,13.87
2022-09-30T18:32:59.436Z,13.76
2022-09-30T18:38:04.803Z,13.66
2022-09-30T18:43:11.152Z,13.58
2022-09-30T18:48:14.567Z,13.48
2022-09-30T18:53:16.344Z,13.39
2022-09-30T18:58:18.905Z,13.30
2022-09-30T19:03:20.812Z,13.24
2022-09-30T19:08:22.665Z,13.15
2022-09-30T19:13:27.439Z,13.08
2022-09-30T19:18:31.881Z,13.02
2022-09-30T19:23:34.096Z,12.95
2022-09-30T19:28:40.582Z,12.86
2022-09-30T19:33:56.041Z,12.80
2022-09-30T19:39:11.441Z,12.74
2022-09-30T19:44:18.776Z,12.68
2022-09-30T19:49:23.857Z,12.62
2022-09-30T19:54:36.450Z,12.58
2022-09-30T19:59:51.446Z,12.53
2022-09-30T20:04:53.834Z,12.49
2022-09-30T20:09:58.302Z,12.47
2022-09-30T20:15:18.893Z,12.45
2022-09-30T20:20:37.157Z,12.40
2022-09-30T20:25:39.138Z,12.38
2022-09-30T20:30:45.654Z,12.33
2022-09-30T20:35:48.172Z,12.29
2022-09-30T20:40:56.630Z,12.28
2022-09-30T20:46:05.279Z,12.28
2022-09-30T20:51:12.645Z,12.66
2022-09-30T20:56:16.369Z,12.46
2022-09-30T21:01:23.689Z,12.43
2022-09-30T21:06:28.063Z,12.31
2022-09-30T21:11:29.906Z,12.25
2022-09-30T21:16:31.958Z,12.21
2022-09-30T21:21:36.745Z,12.17
2022-09-30T21:26:38.418Z,12.15
2022-09-30T21:31:45.492Z,12.11
2022-09-30T21:36:53.520Z,12.10
2022-09-30T21:41:56.000Z,12.10
2022-09-30T21:47:02.647Z,12.09
2022-09-30T21:52:09.180Z,12.08
2022-09-30T21:57:13.106Z,12.08
2022-09-30T22:02:17.520Z,12.05
2022-09-30T22:07:24.094Z,12.06
2022-09-30T22:12:28.220Z,12.04
2022-09-30T22:17:32.335Z,12.02
2022-09-30T22:22:36.649Z,11.99
2022-09-30T22:27:40.868Z,12.00
2022-09-30T22:32:45.111Z,11.99
2022-09-30T22:38:11.126Z,11.97
2022-09-30T22:43:17.766Z,12.00
2022-09-30T22:48:22.540Z,12.00
2022-09-30T22:53:29.271Z,12.03
2022-09-30T22:58:36.923Z,12.02
2022-09-30T23:03:42.383Z,12.03
2022-09-30T23:08:49.307Z,12.07
2022-09-30T23:13:59.021Z,12.08
2022-09-30T23:19:02.401Z,12.09
2022-09-30T23:24:04.823Z,12.10
2022-09-30T23:29:18.902Z,12.11
2022-09-30T23:34:22.779Z,12.12
2022-09-30T23:39:26.617Z,12.13
2022-09-30T23:44:32.945Z,12.14
2022-09-30T23:49:40.268Z,12.13
2022-09-30T23:54:42.451Z,12.14
2022-09-30T23:59:46.462Z,12.13
